sensor_id;sensor_type;location;lat;lon;timestamp;pressure;altitude;pressure_sealevel;temperature;humidity
71621;BME280;59471;42.254;23.102;2023-02-28T00:00:23;96349.88;;;8.32;92.65
71621;BME280;59471;42.254;23.102;2023-02-28T00:02:48;96346.59;;;8.30;92.19
71621;BME280;59471;42.254;23.102;2023-02-28T00:05:17;96350.72;;;8.15;93.07
71621;BME280;59471;42.254;23.102;2023-02-28T00:07:44;96353.44;;;8.13;92.99
71621;BME280;59471;42.254;23.102;2023-02-28T00:10:13;96348.81;;;8.07;94.02
71621;BME280;59471;42.254;23.102;2023-02-28T00:12:44;96348.25;;;7.95;93.97
71621;BME280;59471;42.254;23.102;2023-02-28T00:15:10;96349.38;;;8.10;92.70
71621;BME280;59471;42.254;23.102;2023-02-28T00:17:37;96350.59;;;7.71;93.87
71621;BME280;59471;42.254;23.102;2023-02-28T00:20:03;96360.00;;;7.63;94.80
71621;BME280;59471;42.254;23.102;2023-02-28T00:22:30;96357.16;;;7.75;94.32
71621;BME280;59471;42.254;23.102;2023-02-28T00:24:56;96364.19;;;7.92;93.43
71621;BME280;59471;42.254;23.102;2023-02-28T00:27:21;96362.81;;;7.88;93.27
71621;BME280;59471;42.254;23.102;2023-02-28T00:29:47;96361.03;;;7.71;94.67
71621;BME280;59471;42.254;23.102;2023-02-28T00:32:12;96357.16;;;7.75;95.27
71621;BME280;59471;42.254;23.102;2023-02-28T00:34:38;96361.19;;;7.87;93.92
71621;BME280;59471;42.254;23.102;2023-02-28T00:37:05;96356.41;;;7.64;94.22
71621;BME280;59471;42.254;23.102;2023-02-28T00:39:34;96353.91;;;7.73;93.33
71621;BME280;59471;42.254;23.102;2023-02-28T00:42:00;96355.22;;;7.77;93.53
71621;BME280;59471;42.254;23.102;2023-02-28T00:44:27;96353.34;;;7.69;92.93
71621;BME280;59471;42.254;23.102;2023-02-28T00:46:53;96352.81;;;7.48;93.87
71621;BME280;59471;42.254;23.102;2023-02-28T00:49:19;96356.13;;;7.40;94.20
71621;BME280;59471;42.254;23.102;2023-02-28T00:51:45;96350.81;;;7.32;94.87
71621;BME280;59471;42.254;23.102;2023-02-28T00:54:11;96360.91;;;7.45;94.07
71621;BME280;59471;42.254;23.102;2023-02-28T00:56:37;96353.97;;;7.53;93.65
71621;BME280;59471;42.254;23.102;2023-02-28T00:59:02;96360.38;;;7.41;94.40
71621;BME280;59471;42.254;23.102;2023-02-28T01:01:28;96359.41;;;7.42;94.83
71621;BME280;59471;42.254;23.102;2023-02-28T01:03:54;96356.91;;;7.23;95.69
71621;BME280;59471;42.254;23.102;2023-02-28T01:06:19;96366.19;;;7.35;94.96
71621;BME280;59471;42.254;23.102;2023-02-28T01:08:45;96354.66;;;7.28;95.19
71621;BME280;59471;42.254;23.102;2023-02-28T01:11:12;96360.84;;;7.54;93.56
71621;BME280;59471;42.254;23.102;2023-02-28T01:13:38;96353.22;;;7.43;92.73
71621;BME280;59471;42.254;23.102;2023-02-28T01:16:04;96348.75;;;7.35;92.98
71621;BME280;59471;42.254;23.102;2023-02-28T01:18:30;96347.09;;;7.34;92.48
71621;BME280;59471;42.254;23.102;2023-02-28T01:20:56;96355.34;;;7.30;91.89
71621;BME280;59471;42.254;23.102;2023-02-28T01:23:23;96351.41;;;7.26;92.53
71621;BME280;59471;42.254;23.102;2023-02-28T01:25:49;96347.50;;;7.39;92.49
71621;BME280;59471;42.254;23.102;2023-02-28T01:28:16;96346.84;;;7.28;92.88
71621;BME280;59471;42.254;23.102;2023-02-28T01:30:41;96355.19;;;7.31;92.11
71621;BME280;59471;42.254;23.102;2023-02-28T01:33:07;96350.03;;;7.22;91.89
71621;BME280;59471;42.254;23.102;2023-02-28T01:35:34;96354.47;;;7.11;91.65
71621;BME280;59471;42.254;23.102;2023-02-28T01:38:00;96348.00;;;7.15;91.21
71621;BME280;59471;42.254;23.102;2023-02-28T01:40:26;96352.91;;;6.91;91.82
71621;BME280;59471;42.254;23.102;2023-02-28T01:42:52;96352.78;;;6.83;92.14
71621;BME280;59471;42.254;23.102;2023-02-28T01:45:27;96357.25;;;7.00;91.34
71621;BME280;59471;42.254;23.102;2023-02-28T01:48:04;96344.22;;;6.53;90.83
71621;BME280;59471;42.254;23.102;2023-02-28T01:50:34;96342.69;;;6.60;92.49
71621;BME280;59471;42.254;23.102;2023-02-28T01:53:06;96347.25;;;6.39;93.02
71621;BME280;59471;42.254;23.102;2023-02-28T01:55:33;96346.97;;;6.32;92.83
71621;BME280;59471;42.254;23.102;2023-02-28T01:58:02;96338.19;;;6.43;92.26
71621;BME280;59471;42.254;23.102;2023-02-28T02:00:30;96341.19;;;6.58;91.17
71621;BME280;59471;42.254;23.102;2023-02-28T02:02:59;96352.97;;;6.52;90.29
71621;BME280;59471;42.254;23.102;2023-02-28T02:05:32;96353.16;;;6.31;91.56
71621;BME280;59471;42.254;23.102;2023-02-28T02:08:05;96343.69;;;6.40;91.19
71621;BME280;59471;42.254;23.102;2023-02-28T02:10:36;96348.47;;;6.44;90.69
71621;BME280;59471;42.254;23.102;2023-02-28T02:18:46;96363.41;;;6.13;91.73
71621;BME280;59471;42.254;23.102;2023-02-28T02:21:54;96364.50;;;6.01;92.60
71621;BME280;59471;42.254;23.102;2023-02-28T02:27:25;96357.41;;;6.13;91.04
71621;BME280;59471;42.254;23.102;2023-02-28T02:36:03;96376.81;;;5.99;90.58
71621;BME280;59471;42.254;23.102;2023-02-28T02:38:37;96380.66;;;5.54;93.68
71621;BME280;59471;42.254;23.102;2023-02-28T02:44:26;96382.63;;;5.72;91.31
71621;BME280;59471;42.254;23.102;2023-02-28T02:46:57;96384.44;;;5.71;91.48
71621;BME280;59471;42.254;23.102;2023-02-28T02:49:32;96384.00;;;5.66;92.01
71621;BME280;59471;42.254;23.102;2023-02-28T02:52:05;96387.47;;;5.36;92.15
71621;BME280;59471;42.254;23.102;2023-02-28T02:54:38;96392.97;;;5.43;92.43
71621;BME280;59471;42.254;23.102;2023-02-28T02:57:27;96390.50;;;5.51;90.99
71621;BME280;59471;42.254;23.102;2023-02-28T02:59:58;96393.59;;;5.35;91.17
71621;BME280;59471;42.254;23.102;2023-02-28T03:02:29;96394.88;;;5.10;92.89
71621;BME280;59471;42.254;23.102;2023-02-28T03:05:02;96390.09;;;4.84;93.38
71621;BME280;59471;42.254;23.102;2023-02-28T03:07:30;96397.06;;;4.63;94.98
71621;BME280;59471;42.254;23.102;2023-02-28T03:09:57;96393.03;;;4.70;94.91
71621;BME280;59471;42.254;23.102;2023-02-28T03:12:40;96400.88;;;4.59;95.81
71621;BME280;59471;42.254;23.102;2023-02-28T03:15:23;96399.56;;;4.64;94.89
71621;BME280;59471;42.254;23.102;2023-02-28T03:18:14;96409.41;;;4.71;96.06
71621;BME280;59471;42.254;23.102;2023-02-28T03:26:26;96413.91;;;4.90;93.29
71621;BME280;59471;42.254;23.102;2023-02-28T03:31:41;96418.72;;;4.73;93.53
71621;BME280;59471;42.254;23.102;2023-02-28T03:34:30;96421.28;;;4.94;92.65
71621;BME280;59471;42.254;23.102;2023-02-28T03:37:05;96431.47;;;5.07;91.19
71621;BME280;59471;42.254;23.102;2023-02-28T03:39:42;96423.00;;;5.05;91.54
71621;BME280;59471;42.254;23.102;2023-02-28T03:42:20;96423.53;;;4.99;90.81
71621;BME280;59471;42.254;23.102;2023-02-28T03:44:53;96420.94;;;4.78;91.29
71621;BME280;59471;42.254;23.102;2023-02-28T03:47:26;96415.69;;;4.68;92.57
71621;BME280;59471;42.254;23.102;2023-02-28T03:52:57;96417.88;;;4.31;94.23
71621;BME280;59471;42.254;23.102;2023-02-28T03:55:32;96416.06;;;4.43;94.87
71621;BME280;59471;42.254;23.102;2023-02-28T03:58:21;96416.50;;;4.90;93.76
71621;BME280;59471;42.254;23.102;2023-02-28T04:01:00;96416.34;;;4.91;91.85
71621;BME280;59471;42.254;23.102;2023-02-28T04:03:36;96409.72;;;4.77;92.09
71621;BME280;59471;42.254;23.102;2023-02-28T04:06:04;96413.34;;;4.65;92.48
71621;BME280;59471;42.254;23.102;2023-02-28T04:08:32;96416.19;;;4.62;92.42
71621;BME280;59471;42.254;23.102;2023-02-28T04:11:07;96419.75;;;4.61;93.53
71621;BME280;59471;42.254;23.102;2023-02-28T04:13:42;96419.03;;;4.59;91.64
71621;BME280;59471;42.254;23.102;2023-02-28T04:16:08;96417.63;;;4.76;91.49
71621;BME280;59471;42.254;23.102;2023-02-28T04:18:37;96425.88;;;4.81;90.94
71621;BME280;59471;42.254;23.102;2023-02-28T04:21:04;96424.47;;;4.77;90.67
71621;BME280;59471;42.254;23.102;2023-02-28T04:23:31;96420.03;;;4.88;91.12
71621;BME280;59471;42.254;23.102;2023-02-28T04:25:57;96427.56;;;4.92;91.88
71621;BME280;59471;42.254;23.102;2023-02-28T04:28:22;96425.63;;;4.84;92.34
71621;BME280;59471;42.254;23.102;2023-02-28T04:30:55;96432.59;;;4.83;90.87
71621;BME280;59471;42.254;23.102;2023-02-28T04:33:22;96433.59;;;4.92;90.74
71621;BME280;59471;42.254;23.102;2023-02-28T04:35:47;96427.56;;;4.92;92.70
71621;BME280;59471;42.254;23.102;2023-02-28T04:38:13;96430.41;;;4.88;93.46
71621;BME280;59471;42.254;23.102;2023-02-28T04:40:38;96437.63;;;4.85;94.39
71621;BME280;59471;42.254;23.102;2023-02-28T04:43:04;96430.59;;;4.97;95.56
71621;BME280;59471;42.254;23.102;2023-02-28T04:45:29;96440.22;;;5.06;95.49
71621;BME280;59471;42.254;23.102;2023-02-28T04:47:57;96440.38;;;4.83;96.70
71621;BME280;59471;42.254;23.102;2023-02-28T04:50:23;96436.63;;;4.97;97.89
71621;BME280;59471;42.254;23.102;2023-02-28T04:52:49;96438.94;;;5.21;96.25
71621;BME280;59471;42.254;23.102;2023-02-28T04:55:14;96441.06;;;5.37;94.87
71621;BME280;59471;42.254;23.102;2023-02-28T04:57:40;96438.84;;;5.32;95.34
71621;BME280;59471;42.254;23.102;2023-02-28T05:00:08;96445.59;;;5.45;94.62
71621;BME280;59471;42.254;23.102;2023-02-28T05:02:37;96445.84;;;5.42;95.40
71621;BME280;59471;42.254;23.102;2023-02-28T05:05:04;96445.63;;;5.54;95.89
71621;BME280;59471;42.254;23.102;2023-02-28T05:07:30;96446.53;;;5.74;95.05
71621;BME280;59471;42.254;23.102;2023-02-28T05:09:56;96452.28;;;5.78;94.18
71621;BME280;59471;42.254;23.102;2023-02-28T05:12:21;96457.56;;;5.97;93.76
71621;BME280;59471;42.254;23.102;2023-02-28T05:14:47;96456.69;;;5.87;93.58
71621;BME280;59471;42.254;23.102;2023-02-28T05:17:12;96457.00;;;5.94;93.85
71621;BME280;59471;42.254;23.102;2023-02-28T05:19:38;96464.94;;;6.02;92.77
71621;BME280;59471;42.254;23.102;2023-02-28T05:22:03;96468.69;;;5.78;94.69
71621;BME280;59471;42.254;23.102;2023-02-28T05:24:29;96476.66;;;5.87;94.35
71621;BME280;59471;42.254;23.102;2023-02-28T05:26:55;96472.47;;;6.05;94.58
71621;BME280;59471;42.254;23.102;2023-02-28T05:29:21;96477.84;;;6.13;93.71
71621;BME280;59471;42.254;23.102;2023-02-28T05:31:47;96478.69;;;6.23;92.53
71621;BME280;59471;42.254;23.102;2023-02-28T05:34:13;96488.69;;;6.18;93.36
71621;BME280;59471;42.254;23.102;2023-02-28T05:36:40;96491.25;;;6.09;92.91
71621;BME280;59471;42.254;23.102;2023-02-28T05:39:06;96489.31;;;6.01;94.17
71621;BME280;59471;42.254;23.102;2023-02-28T05:41:41;96497.19;;;5.90;95.01
71621;BME280;59471;42.254;23.102;2023-02-28T05:44:07;96504.28;;;5.88;95.98
71621;BME280;59471;42.254;23.102;2023-02-28T05:46:33;96502.91;;;5.84;94.67
71621;BME280;59471;42.254;23.102;2023-02-28T05:48:59;96510.78;;;5.42;96.69
71621;BME280;59471;42.254;23.102;2023-02-28T05:51:25;96508.91;;;5.23;97.98
71621;BME280;59471;42.254;23.102;2023-02-28T05:53:51;96505.56;;;5.63;96.94
71621;BME280;59471;42.254;23.102;2023-02-28T05:56:17;96521.25;;;5.92;94.85
71621;BME280;59471;42.254;23.102;2023-02-28T05:58:42;96517.75;;;5.93;94.58
71621;BME280;59471;42.254;23.102;2023-02-28T06:01:37;96512.00;;;5.99;95.27
71621;BME280;59471;42.254;23.102;2023-02-28T06:04:09;96513.41;;;6.03;94.35
71621;BME280;59471;42.254;23.102;2023-02-28T06:06:36;96518.06;;;5.99;95.01
71621;BME280;59471;42.254;23.102;2023-02-28T06:09:03;96520.78;;;5.98;95.55
71621;BME280;59471;42.254;23.102;2023-02-28T06:11:30;96526.81;;;6.08;96.35
71621;BME280;59471;42.254;23.102;2023-02-28T06:13:57;96532.03;;;6.18;96.42
71621;BME280;59471;42.254;23.102;2023-02-28T06:16:25;96530.97;;;6.20;95.31
71621;BME280;59471;42.254;23.102;2023-02-28T06:18:52;96532.63;;;6.21;95.16
71621;BME280;59471;42.254;23.102;2023-02-28T06:21:18;96542.53;;;6.47;94.75
71621;BME280;59471;42.254;23.102;2023-02-28T06:23:44;96541.72;;;6.56;94.61
71621;BME280;59471;42.254;23.102;2023-02-28T06:26:10;96538.16;;;6.57;93.90
71621;BME280;59471;42.254;23.102;2023-02-28T06:28:36;96538.41;;;6.35;93.74
71621;BME280;59471;42.254;23.102;2023-02-28T06:31:07;96542.25;;;6.50;93.73
71621;BME280;59471;42.254;23.102;2023-02-28T06:33:33;96531.16;;;5.98;94.54
71621;BME280;59471;42.254;23.102;2023-02-28T06:35:59;96531.94;;;5.89;96.16
71621;BME280;59471;42.254;23.102;2023-02-28T06:38:25;96538.88;;;6.09;96.28
71621;BME280;59471;42.254;23.102;2023-02-28T06:40:54;96539.31;;;6.24;95.46
71621;BME280;59471;42.254;23.102;2023-02-28T06:43:22;96532.34;;;6.24;96.64
71621;BME280;59471;42.254;23.102;2023-02-28T06:45:48;96532.09;;;6.28;94.66
71621;BME280;59471;42.254;23.102;2023-02-28T06:48:14;96536.06;;;6.32;94.09
71621;BME280;59471;42.254;23.102;2023-02-28T06:50:39;96546.59;;;6.40;94.03
71621;BME280;59471;42.254;23.102;2023-02-28T06:53:05;96539.50;;;6.42;92.45
71621;BME280;59471;42.254;23.102;2023-02-28T06:55:31;96545.38;;;6.24;93.95
71621;BME280;59471;42.254;23.102;2023-02-28T06:57:57;96537.56;;;6.24;93.58
71621;BME280;59471;42.254;23.102;2023-02-28T07:00:23;96534.56;;;6.39;94.22
71621;BME280;59471;42.254;23.102;2023-02-28T07:02:50;96539.78;;;6.58;93.72
71621;BME280;59471;42.254;23.102;2023-02-28T07:05:16;96545.00;;;6.68;91.44
71621;BME280;59471;42.254;23.102;2023-02-28T07:07:41;96536.66;;;6.64;93.85
71621;BME280;59471;42.254;23.102;2023-02-28T07:10:10;96539.81;;;6.78;92.86
71621;BME280;59471;42.254;23.102;2023-02-28T07:12:37;96532.84;;;6.78;92.60
71621;BME280;59471;42.254;23.102;2023-02-28T07:15:04;96532.00;;;6.78;91.16
71621;BME280;59471;42.254;23.102;2023-02-28T07:17:30;96532.69;;;6.60;92.74
71621;BME280;59471;42.254;23.102;2023-02-28T07:19:56;96525.41;;;6.83;92.41
71621;BME280;59471;42.254;23.102;2023-02-28T07:22:21;96535.72;;;6.85;91.82
71621;BME280;59471;42.254;23.102;2023-02-28T07:24:47;96529.28;;;6.69;91.79
71621;BME280;59471;42.254;23.102;2023-02-28T07:27:12;96517.59;;;6.54;91.47
71621;BME280;59471;42.254;23.102;2023-02-28T07:29:51;96528.31;;;6.80;92.22
71621;BME280;59471;42.254;23.102;2023-02-28T07:32:18;96529.69;;;7.04;91.47
71621;BME280;59471;42.254;23.102;2023-02-28T07:34:44;96542.25;;;7.28;88.19
71621;BME280;59471;42.254;23.102;2023-02-28T07:37:10;96538.16;;;7.25;90.31
71621;BME280;59471;42.254;23.102;2023-02-28T07:39:36;96540.63;;;7.27;91.70
71621;BME280;59471;42.254;23.102;2023-02-28T07:42:06;96536.44;;;7.53;90.98
71621;BME280;59471;42.254;23.102;2023-02-28T07:44:35;96531.22;;;7.53;90.42
71621;BME280;59471;42.254;23.102;2023-02-28T07:47:08;96528.22;;;7.48;88.92
71621;BME280;59471;42.254;23.102;2023-02-28T07:49:36;96536.38;;;7.16;91.29
71621;BME280;59471;42.254;23.102;2023-02-28T07:52:03;96529.81;;;7.69;89.67
71621;BME280;59471;42.254;23.102;2023-02-28T07:54:29;96534.22;;;7.58;89.13
71621;BME280;59471;42.254;23.102;2023-02-28T07:56:55;96526.09;;;7.71;89.23
71621;BME280;59471;42.254;23.102;2023-02-28T07:59:21;96527.38;;;7.57;89.02
71621;BME280;59471;42.254;23.102;2023-02-28T08:01:46;96519.78;;;7.17;89.81
71621;BME280;59471;42.254;23.102;2023-02-28T08:04:13;96524.56;;;7.22;91.22
71621;BME280;59471;42.254;23.102;2023-02-28T08:06:39;96532.94;;;7.35;91.03
71621;BME280;59471;42.254;23.102;2023-02-28T08:09:05;96521.31;;;7.66;88.71
71621;BME280;59471;42.254;23.102;2023-02-28T08:11:30;96520.81;;;7.43;89.73
71621;BME280;59471;42.254;23.102;2023-02-28T08:13:56;96517.34;;;7.62;89.09
71621;BME280;59471;42.254;23.102;2023-02-28T08:16:21;96530.44;;;8.18;88.00
71621;BME280;59471;42.254;23.102;2023-02-28T08:18:53;96523.25;;;7.64;87.95
71621;BME280;59471;42.254;23.102;2023-02-28T08:21:20;96530.63;;;7.79;89.15
71621;BME280;59471;42.254;23.102;2023-02-28T08:23:49;96526.63;;;7.28;90.32
71621;BME280;59471;42.254;23.102;2023-02-28T08:26:17;96526.72;;;7.46;91.27
71621;BME280;59471;42.254;23.102;2023-02-28T08:28:43;96520.47;;;7.76;89.24
71621;BME280;59471;42.254;23.102;2023-02-28T08:31:14;96520.38;;;7.95;87.74
71621;BME280;59471;42.254;23.102;2023-02-28T08:33:41;96523.16;;;7.84;89.24
71621;BME280;59471;42.254;23.102;2023-02-28T08:36:09;96526.38;;;8.05;89.47
71621;BME280;59471;42.254;23.102;2023-02-28T08:38:36;96527.31;;;8.32;89.54
71621;BME280;59471;42.254;23.102;2023-02-28T08:41:05;96527.25;;;8.51;88.42
71621;BME280;59471;42.254;23.102;2023-02-28T08:43:33;96521.13;;;8.61;87.45
71621;BME280;59471;42.254;23.102;2023-02-28T08:45:59;96518.97;;;8.56;87.38
71621;BME280;59471;42.254;23.102;2023-02-28T08:48:25;96520.31;;;8.78;87.00
71621;BME280;59471;42.254;23.102;2023-02-28T08:51:08;96526.81;;;8.74;86.76
71621;BME280;59471;42.254;23.102;2023-02-28T08:53:39;96529.56;;;8.90;86.65
71621;BME280;59471;42.254;23.102;2023-02-28T08:56:13;96521.91;;;8.71;85.87
71621;BME280;59471;42.254;23.102;2023-02-28T08:58:42;96520.47;;;8.58;87.21
71621;BME280;59471;42.254;23.102;2023-02-28T09:01:10;96526.13;;;9.08;85.97
71621;BME280;59471;42.254;23.102;2023-02-28T09:03:38;96516.56;;;9.42;86.22
71621;BME280;59471;42.254;23.102;2023-02-28T09:06:06;96510.72;;;9.22;85.96
71621;BME280;59471;42.254;23.102;2023-02-28T09:08:31;96525.69;;;9.38;84.47
71621;BME280;59471;42.254;23.102;2023-02-28T09:10:58;96526.06;;;9.43;85.69
71621;BME280;59471;42.254;23.102;2023-02-28T09:13:25;96517.50;;;9.33;85.46
71621;BME280;59471;42.254;23.102;2023-02-28T09:15:53;96506.81;;;9.26;86.28
71621;BME280;59471;42.254;23.102;2023-02-28T09:18:19;96510.00;;;9.38;85.64
71621;BME280;59471;42.254;23.102;2023-02-28T09:20:45;96509.09;;;9.47;84.35
71621;BME280;59471;42.254;23.102;2023-02-28T09:23:12;96497.66;;;9.74;84.53
71621;BME280;59471;42.254;23.102;2023-02-28T09:25:38;96506.56;;;9.64;83.69
71621;BME280;59471;42.254;23.102;2023-02-28T09:28:13;96504.06;;;9.28;82.59
71621;BME280;59471;42.254;23.102;2023-02-28T09:30:41;96500.03;;;9.60;82.81
71621;BME280;59471;42.254;23.102;2023-02-28T09:33:07;96500.28;;;9.48;83.95
71621;BME280;59471;42.254;23.102;2023-02-28T09:35:33;96496.03;;;9.03;83.63
71621;BME280;59471;42.254;23.102;2023-02-28T09:37:58;96485.81;;;9.10;85.38
71621;BME280;59471;42.254;23.102;2023-02-28T09:40:25;96495.94;;;9.31;83.31
71621;BME280;59471;42.254;23.102;2023-02-28T09:42:53;96497.75;;;9.39;82.44
71621;BME280;59471;42.254;23.102;2023-02-28T09:45:27;96483.41;;;9.77;82.14
71621;BME280;59471;42.254;23.102;2023-02-28T09:48:02;96487.03;;;10.18;81.71
71621;BME280;59471;42.254;23.102;2023-02-28T09:50:35;96491.50;;;10.26;80.93
71621;BME280;59471;42.254;23.102;2023-02-28T09:53:13;96484.03;;;10.56;78.20
71621;BME280;59471;42.254;23.102;2023-02-28T09:56:15;96475.03;;;10.50;79.75
71621;BME280;59471;42.254;23.102;2023-02-28T09:59:05;96474.06;;;10.59;78.42
71621;BME280;59471;42.254;23.102;2023-02-28T10:01:54;96470.63;;;10.59;79.05
71621;BME280;59471;42.254;23.102;2023-02-28T10:04:49;96458.38;;;10.92;79.71
71621;BME280;59471;42.254;23.102;2023-02-28T10:07:35;96460.00;;;11.01;78.59
71621;BME280;59471;42.254;23.102;2023-02-28T10:10:29;96450.00;;;11.05;79.24
71621;BME280;59471;42.254;23.102;2023-02-28T10:12:57;96446.09;;;11.01;76.88
71621;BME280;59471;42.254;23.102;2023-02-28T10:15:28;96444.44;;;10.83;78.29
71621;BME280;59471;42.254;23.102;2023-02-28T10:18:08;96445.28;;;11.00;77.37
71621;BME280;59471;42.254;23.102;2023-02-28T10:20:40;96437.50;;;11.31;77.81
71621;BME280;59471;42.254;23.102;2023-02-28T10:23:19;96438.78;;;11.44;77.17
71621;BME280;59471;42.254;23.102;2023-02-28T10:25:55;96419.66;;;11.35;75.95
71621;BME280;59471;42.254;23.102;2023-02-28T10:28:25;96418.34;;;11.31;77.12
71621;BME280;59471;42.254;23.102;2023-02-28T10:30:53;96416.25;;;11.74;77.77
71621;BME280;59471;42.254;23.102;2023-02-28T10:33:23;96417.31;;;11.48;76.87
71621;BME280;59471;42.254;23.102;2023-02-28T10:35:51;96402.50;;;11.16;77.62
71621;BME280;59471;42.254;23.102;2023-02-28T10:38:21;96405.47;;;11.60;74.47
71621;BME280;59471;42.254;23.102;2023-02-28T10:40:49;96401.09;;;11.45;75.96
71621;BME280;59471;42.254;23.102;2023-02-28T10:45:59;96403.25;;;11.89;75.24
71621;BME280;59471;42.254;23.102;2023-02-28T10:48:38;96398.28;;;11.94;73.23
71621;BME280;59471;42.254;23.102;2023-02-28T10:51:08;96393.56;;;11.89;74.24
71621;BME280;59471;42.254;23.102;2023-02-28T10:53:50;96385.41;;;12.07;73.66
71621;BME280;59471;42.254;23.102;2023-02-28T10:56:22;96379.81;;;12.10;74.47
71621;BME280;59471;42.254;23.102;2023-02-28T10:58:56;96374.50;;;12.26;74.50
71621;BME280;59471;42.254;23.102;2023-02-28T11:03:55;96377.50;;;12.38;73.56
71621;BME280;59471;42.254;23.102;2023-02-28T11:06:29;96364.59;;;12.28;69.03
71621;BME280;59471;42.254;23.102;2023-02-28T11:09:02;96366.94;;;12.46;69.22
71621;BME280;59471;42.254;23.102;2023-02-28T11:11:30;96361.00;;;12.29;69.76
71621;BME280;59471;42.254;23.102;2023-02-28T11:14:19;96355.16;;;12.42;69.42
71621;BME280;59471;42.254;23.102;2023-02-28T11:16:47;96362.47;;;12.55;70.61
71621;BME280;59471;42.254;23.102;2023-02-28T11:19:20;96359.19;;;12.53;68.98
71621;BME280;59471;42.254;23.102;2023-02-28T11:22:00;96355.44;;;12.70;68.71
71621;BME280;59471;42.254;23.102;2023-02-28T11:27:45;96347.59;;;12.62;69.48
71621;BME280;59471;42.254;23.102;2023-02-28T11:30:36;96349.22;;;12.63;69.17
71621;BME280;59471;42.254;23.102;2023-02-28T11:33:22;96345.53;;;12.35;70.55
71621;BME280;59471;42.254;23.102;2023-02-28T11:36:08;96343.47;;;12.45;69.94
71621;BME280;59471;42.254;23.102;2023-02-28T11:38:39;96348.44;;;12.40;70.66
71621;BME280;59471;42.254;23.102;2023-02-28T11:46:52;96342.16;;;12.49;70.65
71621;BME280;59471;42.254;23.102;2023-02-28T11:52:21;96337.25;;;12.46;70.38
71621;BME280;59471;42.254;23.102;2023-02-28T12:01:01;96328.22;;;12.63;69.24
71621;BME280;59471;42.254;23.102;2023-02-28T12:15:26;96316.59;;;12.43;69.03
71621;BME280;59471;42.254;23.102;2023-02-28T12:19:12;96321.47;;;12.46;68.15
71621;BME280;59471;42.254;23.102;2023-02-28T12:21:41;96309.91;;;12.70;68.90
71621;BME280;59471;42.254;23.102;2023-02-28T12:27:13;96309.56;;;12.58;68.54
71621;BME280;59471;42.254;23.102;2023-02-28T12:30:04;96307.03;;;12.42;68.49
71621;BME280;59471;42.254;23.102;2023-02-28T12:32:44;96294.84;;;12.49;70.22
71621;BME280;59471;42.254;23.102;2023-02-28T12:35:22;96304.41;;;12.65;69.40
71621;BME280;59471;42.254;23.102;2023-02-28T12:40:44;96305.94;;;12.59;69.89
71621;BME280;59471;42.254;23.102;2023-02-28T12:43:20;96305.94;;;12.59;68.93
71621;BME280;59471;42.254;23.102;2023-02-28T12:45:51;96298.22;;;12.58;70.47
71621;BME280;59471;42.254;23.102;2023-02-28T12:48:43;96301.78;;;12.42;69.26
71621;BME280;59471;42.254;23.102;2023-02-28T12:51:12;96296.16;;;12.30;69.73
71621;BME280;59471;42.254;23.102;2023-02-28T12:53:56;96294.41;;;12.22;71.32
71621;BME280;59471;42.254;23.102;2023-02-28T12:59:41;96283.97;;;12.14;70.97
71621;BME280;59471;42.254;23.102;2023-02-28T13:08:24;96271.44;;;12.01;71.40
71621;BME280;59471;42.254;23.102;2023-02-28T13:10:58;96270.97;;;11.98;70.02
71621;BME280;59471;42.254;23.102;2023-02-28T13:13:27;96266.09;;;11.95;71.13
71621;BME280;59471;42.254;23.102;2023-02-28T13:18:32;96273.97;;;11.95;70.38
71621;BME280;59471;42.254;23.102;2023-02-28T13:21:02;96270.69;;;11.93;70.69
71621;BME280;59471;42.254;23.102;2023-02-28T13:26:12;96281.22;;;11.53;71.84
71621;BME280;59471;42.254;23.102;2023-02-28T13:29:01;96270.31;;;11.42;71.79
71621;BME280;59471;42.254;23.102;2023-02-28T13:50:15;96270.91;;;10.65;74.61
71621;BME280;59471;42.254;23.102;2023-02-28T14:06:57;96269.00;;;10.34;74.87
71621;BME280;59471;42.254;23.102;2023-02-28T14:09:44;96275.03;;;10.43;74.42
71621;BME280;59471;42.254;23.102;2023-02-28T14:20:57;96261.13;;;10.02;75.93
71621;BME280;59471;42.254;23.102;2023-02-28T14:32:28;96274.84;;;10.20;75.74
71621;BME280;59471;42.254;23.102;2023-02-28T14:35:13;96271.25;;;10.21;75.22
71621;BME280;59471;42.254;23.102;2023-02-28T14:37:43;96274.84;;;10.20;75.93
71621;BME280;59471;42.254;23.102;2023-02-28T14:40:20;96280.56;;;10.24;76.44
71621;BME280;59471;42.254;23.102;2023-02-28T14:42:59;96280.25;;;10.10;75.40
71621;BME280;59471;42.254;23.102;2023-02-28T14:45:30;96272.59;;;10.09;75.29
71621;BME280;59471;42.254;23.102;2023-02-28T14:47:58;96275.50;;;9.97;75.72
71621;BME280;59471;42.254;23.102;2023-02-28T14:50:30;96282.34;;;9.82;76.74
71621;BME280;59471;42.254;23.102;2023-02-28T14:52:57;96266.34;;;9.85;76.57
71621;BME280;59471;42.254;23.102;2023-02-28T14:55:30;96279.75;;;9.90;76.74
71621;BME280;59471;42.254;23.102;2023-02-28T14:58:04;96273.88;;;9.96;77.03
71621;BME280;59471;42.254;23.102;2023-02-28T15:00:40;96273.25;;;10.03;76.29
71621;BME280;59471;42.254;23.102;2023-02-28T15:06:03;96289.25;;;10.00;76.03
71621;BME280;59471;42.254;23.102;2023-02-28T15:08:31;96281.88;;;9.95;76.27
71621;BME280;59471;42.254;23.102;2023-02-28T15:11:06;96280.75;;;9.97;76.81
71621;BME280;59471;42.254;23.102;2023-02-28T15:16:13;96292.19;;;10.05;76.52
71621;BME280;59471;42.254;23.102;2023-02-28T15:18:44;96281.06;;;9.94;77.05
71621;BME280;59471;42.254;23.102;2023-02-28T15:21:25;96288.56;;;9.89;77.68
71621;BME280;59471;42.254;23.102;2023-02-28T15:24:27;96269.44;;;9.72;77.43
71621;BME280;59471;42.254;23.102;2023-02-28T15:26:58;96284.84;;;9.84;77.22
71621;BME280;59471;42.254;23.102;2023-02-28T15:29:27;96269.94;;;9.76;76.83
71621;BME280;59471;42.254;23.102;2023-02-28T15:32:03;96287.59;;;9.82;76.74
71621;BME280;59471;42.254;23.102;2023-02-28T15:37:33;96287.06;;;9.62;76.81
71621;BME280;59471;42.254;23.102;2023-02-28T15:42:42;96298.81;;;9.58;78.28